Time;durP1;ratioP1;P1;durP2;ratioP2;P2;SDS_P1;SDS_P2;PMS_P1;PMS_P2;Temp;Humidity;BMP_temperature;BMP_pressure;BME280_temperature;BME280_humidity;BME280_pressure;Samples;Min_cycle;Max_cycle;Signal;HPM_P1;HPM_P2
2022/11/23 00:02:08;;;;;;;5.80;3.10;;;4.40;25.10;;;;;;7362562;19;20009;-70
2022/11/23 00:04:40;;;;;;;9.20;3.45;;;4.40;25.90;;;;;;7362375;19;20011;-70
2022/11/23 00:07:10;;;;;;;15.20;3.20;;;4.40;26.00;;;;;;7367118;19;20476;-69
2022/11/23 00:09:40;;;;;;;6.45;2.92;;;4.40;26.00;;;;;;7365107;19;20007;-69
2022/11/23 00:12:10;;;;;;;8.32;2.75;;;4.50;26.20;;;;;;7361495;19;20328;-69
2022/11/23 00:14:40;;;;;;;8.18;2.55;;;4.50;26.10;;;;;;7383827;19;20077;-70
2022/11/23 00:17:09;;;;;;;12.85;2.80;;;4.60;26.10;;;;;;7366733;19;20011;-69
2022/11/23 00:19:42;;;;;;;8.52;2.60;;;4.40;25.00;;;;;;7364805;19;20018;-70
2022/11/23 00:22:12;;;;;;;8.57;2.80;;;4.40;26.00;;;;;;7360183;19;20081;-69
2022/11/23 00:24:41;;;;;;;9.15;2.72;;;4.40;26.00;;;;;;7361268;19;20034;-69
2022/11/23 00:27:11;;;;;;;6.00;2.45;;;4.40;25.90;;;;;;7365632;19;20010;-68
2022/11/23 00:29:41;;;;;;;11.57;3.10;;;4.40;26.10;;;;;;7385288;19;20017;-69
2022/11/23 00:32:11;;;;;;;8.07;2.50;;;4.40;26.10;;;;;;7360890;19;20013;-69
2022/11/23 00:34:43;;;;;;;10.05;2.75;;;4.40;26.00;;;;;;7361267;19;20462;-69
2022/11/23 00:37:13;;;;;;;6.75;2.88;;;4.30;26.00;;;;;;7365124;19;20041;-69
2022/11/23 00:39:43;;;;;;;9.55;2.80;;;4.30;26.60;;;;;;7360814;19;20007;-70
2022/11/23 00:42:13;;;;;;;8.15;3.30;;;4.30;26.00;;;;;;7359697;19;20043;-70
2022/11/23 00:44:43;;;;;;;9.32;3.15;;;4.30;26.30;;;;;;7383154;19;20018;-70
2022/11/23 00:47:12;;;;;;;8.70;2.92;;;4.50;26.30;;;;;;7364951;19;20020;-70
2022/11/23 00:49:45;;;;;;;6.07;2.15;;;4.60;26.20;;;;;;7363450;19;20663;-71
2022/11/23 00:52:15;;;;;;;9.38;2.47;;;4.70;26.00;;;;;;7360687;19;20078;-70
2022/11/23 00:54:44;;;;;;;5.28;2.22;;;4.70;24.70;;;;;;7361348;19;20011;-70
2022/11/23 00:57:14;;;;;;;4.28;2.00;;;4.70;24.80;;;;;;7366018;19;20007;-70
2022/11/23 00:59:44;;;;;;;4.85;2.40;;;4.80;24.90;;;;;;7383970;19;20158;-69
2022/11/23 01:02:14;;;;;;;7.82;2.30;;;4.90;24.30;;;;;;7361063;19;20010;-69
2022/11/23 01:04:46;;;;;;;11.32;3.10;;;4.90;23.60;;;;;;7367898;19;20010;-70
2022/11/23 01:07:16;;;;;;;6.15;2.60;;;5.00;23.10;;;;;;7373137;19;20010;-69
2022/11/23 01:09:46;;;;;;;7.97;2.75;;;5.00;22.50;;;;;;7369420;19;20014;-70
2022/11/23 01:12:16;;;;;;;7.72;2.55;;;5.10;22.30;;;;;;7367562;19;20017;-70
2022/11/23 01:14:46;;;;;;;10.40;2.60;;;5.10;21.30;;;;;;7389854;19;20011;-70
2022/11/23 01:17:15;;;;;;;8.75;2.40;;;5.20;20.40;;;;;;7372838;19;20006;-70
2022/11/23 01:19:48;;;;;;;5.82;2.33;;;5.20;19.70;;;;;;7368991;19;20526;-70
2022/11/23 01:22:19;;;;;;;4.82;2.42;;;5.20;19.70;;;;;;7367485;19;20014;-71
2022/11/23 01:24:48;;;;;;;9.57;2.38;;;5.20;19.50;;;;;;7367433;19;20063;-70
2022/11/23 01:27:18;;;;;;;5.00;2.00;;;5.10;19.70;;;;;;7371018;19;20352;-71
2022/11/23 01:29:48;;;;;;;6.00;1.80;;;5.20;19.70;;;;;;7390509;19;20030;-70
2022/11/23 01:32:18;;;;;;;6.70;2.03;;;5.10;19.70;;;;;;7367015;19;20002;-70
2022/11/23 01:34:50;;;;;;;7.20;1.80;;;5.20;19.70;;;;;;7367116;19;20014;-70
2022/11/23 01:37:20;;;;;;;3.00;1.75;;;5.10;18.60;;;;;;7371178;19;20010;-70
2022/11/23 01:39:50;;;;;;;4.35;2.10;;;5.10;18.50;;;;;;7368855;19;20097;-71
2022/11/23 01:42:20;;;;;;;3.20;1.98;;;5.00;19.60;;;;;;7365973;19;20022;-71
2022/11/23 01:44:50;;;;;;;6.70;1.90;;;5.00;19.60;;;;;;7388103;19;20014;-70
2022/11/23 01:47:20;;;;;;;7.57;2.05;;;4.80;19.80;;;;;;7371928;19;20029;-70
2022/11/23 01:49:54;;;;;;;4.22;2.10;;;4.80;21.20;;;;;;7368494;19;20497;-70
2022/11/23 01:52:27;;;;;;;6.25;2.03;;;4.70;21.80;;;;;;7367232;19;20010;-70
2022/11/23 01:54:59;;;;;;;3.25;1.70;;;4.70;22.30;;;;;;7366635;19;20018;-71
2022/11/23 01:57:42;;;;;;;4.30;1.85;;;4.60;23.00;;;;;;7371595;19;20111;-70
2022/11/23 02:00:13;;;;;;;4.65;2.17;;;4.60;23.60;;;;;;7365757;19;20011;-70
2022/11/23 02:02:52;;;;;;;8.68;2.50;;;4.50;24.00;;;;;;7392493;19;20013;-70
2022/11/23 02:05:30;;;;;;;8.95;2.50;;;4.50;24.40;;;;;;7366144;19;20494;-70
2022/11/23 02:08:02;;;;;;;5.32;2.55;;;4.50;24.70;;;;;;7371123;19;20015;-70
2022/11/23 02:10:33;;;;;;;5.88;2.50;;;4.50;25.30;;;;;;7365363;19;20015;-70
2022/11/23 02:13:05;;;;;;;7.70;2.30;;;4.50;24.80;;;;;;7368760;19;20102;-70
2022/11/23 02:15:36;;;;;;;6.78;2.50;;;4.50;25.20;;;;;;7365012;19;20029;-70
2022/11/23 02:18:11;;;;;;;7.97;2.38;;;4.50;25.60;;;;;;7370019;19;20011;-70
2022/11/23 02:20:45;;;;;;;7.18;2.08;;;4.50;25.50;;;;;;7387603;19;20010;-70
2022/11/23 02:23:28;;;;;;;8.90;2.63;;;4.60;25.30;;;;;;7368461;19;20014;-70
2022/11/23 02:26:05;;;;;;;5.93;2.40;;;4.60;24.30;;;;;;7368409;19;20387;-70
2022/11/23 02:28:39;;;;;;;4.80;2.00;;;4.60;23.80;;;;;;7368561;19;20082;-70
2022/11/23 02:31:09;;;;;;;7.10;2.00;;;4.70;23.60;;;;;;7365528;19;20010;-70
2022/11/23 02:33:39;;;;;;;5.97;1.92;;;4.70;23.60;;;;;;7366920;19;20375;-69
2022/11/23 02:36:41;;;;;;;6.35;2.30;;;4.80;22.60;;;;;;7368191;19;20047;-72
2022/11/23 02:39:14;;;;;;;4.55;1.60;;;4.80;21.90;;;;;;7365582;19;20818;-71
2022/11/23 02:41:48;;;;;;;7.20;1.85;;;4.80;21.40;;;;;;7385011;19;20517;-71
2022/11/23 02:44:27;;;;;;;5.72;2.40;;;4.80;21.40;;;;;;7367820;19;20013;-69
2022/11/23 02:46:57;;;;;;;4.57;2.00;;;4.80;21.50;;;;;;7370339;19;20769;-69
2022/11/23 02:49:27;;;;;;;6.10;2.28;;;4.80;21.50;;;;;;7367512;19;20023;-69
2022/11/23 02:51:58;;;;;;;6.25;2.15;;;4.80;20.90;;;;;;7364182;19;20010;-71
2022/11/23 02:54:28;;;;;;;5.82;2.00;;;4.80;21.30;;;;;;7365438;19;20007;-69
2022/11/23 02:57:00;;;;;;;4.28;2.17;;;4.70;21.40;;;;;;7390407;19;20014;-70
2022/11/23 02:59:31;;;;;;;8.57;2.35;;;4.70;21.30;;;;;;7367660;19;20077;-69
2022/11/23 03:02:02;;;;;;;6.78;2.33;;;4.70;21.70;;;;;;7362750;19;20018;-69
2022/11/23 03:04:32;;;;;;;8.38;2.67;;;4.70;21.80;;;;;;7365341;19;20530;-70
2022/11/23 03:07:02;;;;;;;5.43;2.95;;;4.70;22.00;;;;;;7369257;19;20010;-71
2022/11/23 03:09:32;;;;;;;6.15;2.92;;;4.70;22.00;;;;;;7366697;19;20074;-70
2022/11/23 03:12:05;;;;;;;4.88;2.63;;;4.70;21.90;;;;;;7385231;19;20014;-71
2022/11/23 03:14:37;;;;;;;7.63;2.60;;;4.60;21.80;;;;;;7362300;19;20467;-70
2022/11/23 03:17:07;;;;;;;6.43;2.63;;;4.60;22.60;;;;;;7366633;19;20369;-70
2022/11/23 03:19:37;;;;;;;7.95;3.03;;;4.60;22.60;;;;;;7367916;19;20008;-71
2022/11/23 03:22:07;;;;;;;5.22;2.20;;;4.60;22.80;;;;;;7363602;19;20082;-70
2022/11/23 03:24:37;;;;;;;7.68;2.22;;;4.60;23.00;;;;;;7362962;19;20011;-71
2022/11/23 03:27:09;;;;;;;4.90;2.15;;;4.60;22.90;;;;;;7365624;19;20494;-71
2022/11/23 03:29:39;;;;;;;8.48;2.60;;;4.60;23.50;;;;;;7387600;19;20017;-70
2022/11/23 03:32:09;;;;;;;7.45;2.33;;;4.60;23.20;;;;;;7362293;19;20043;-71
2022/11/23 03:34:39;;;;;;;7.32;2.28;;;4.60;23.20;;;;;;7364089;19;20014;-71
2022/11/23 03:37:11;;;;;;;8.50;2.45;;;4.70;23.60;;;;;;7367258;19;20014;-70
2022/11/23 03:39:41;;;;;;;7.55;2.58;;;4.70;23.40;;;;;;7366601;19;20022;-70
2022/11/23 03:42:18;;;;;;;;;;;4.70;23.20;;;;;;7363023;19;20010;-71
2022/11/23 03:44:48;;;;;;;8.93;2.60;;;4.70;23.20;;;;;;7385682;19;19922;-70
2022/11/23 03:47:18;;;;;;;7.18;2.63;;;4.70;23.10;;;;;;7367988;19;20003;-71
2022/11/23 03:49:48;;;;;;;7.45;2.80;;;4.70;23.00;;;;;;7365798;19;20359;-71
2022/11/23 03:52:18;;;;;;;7.32;2.42;;;4.80;22.50;;;;;;7362060;19;20013;-70
2022/11/23 03:54:47;;;;;;;5.10;2.47;;;4.80;21.70;;;;;;7362769;19;20007;-71
2022/11/23 03:57:20;;;;;;;8.02;3.03;;;4.90;21.50;;;;;;7367906;19;20340;-70
2022/11/23 03:59:50;;;;;;;4.18;2.78;;;4.80;20.80;;;;;;7387655;19;20014;-70
2022/11/23 04:02:19;;;;;;;7.65;3.00;;;4.80;21.30;;;;;;7360239;19;20469;-70
2022/11/23 04:04:49;;;;;;;9.43;3.05;;;4.90;20.70;;;;;;7362122;19;20014;-71
2022/11/23 04:07:19;;;;;;;6.90;3.03;;;4.90;19.50;;;;;;7367772;19;20007;-71
2022/11/23 04:09:49;;;;;;;7.28;3.03;;;4.80;19.50;;;;;;7365017;19;20003;-71
2022/11/23 04:12:21;;;;;;;10.10;3.50;;;4.80;19.50;;;;;;7361160;19;20022;-71
2022/11/23 04:14:51;;;;;;;8.70;3.17;;;4.80;19.50;;;;;;7384435;19;20011;-71
2022/11/23 04:17:21;;;;;;;8.60;2.80;;;4.80;19.50;;;;;;7365131;19;20354;-71
2022/11/23 04:19:51;;;;;;;8.10;3.28;;;4.90;19.60;;;;;;7365878;19;20019;-71
2022/11/23 04:22:21;;;;;;;11.05;3.28;;;4.90;19.50;;;;;;7360357;19;20385;-70
2022/11/23 04:24:50;;;;;;;6.95;3.40;;;4.90;18.90;;;;;;7362231;19;20016;-70
2022/11/23 04:27:23;;;;;;;6.82;3.22;;;4.90;18.70;;;;;;7365932;19;20010;-70
2022/11/23 04:29:53;;;;;;;8.23;3.30;;;5.00;18.00;;;;;;7386970;19;20025;-70
2022/11/23 04:32:23;;;;;;;7.05;3.28;;;5.00;17.90;;;;;;7359748;19;20011;-71
2022/11/23 04:34:52;;;;;;;8.30;3.25;;;4.90;18.30;;;;;;7362273;19;20102;-71
2022/11/23 04:37:22;;;;;;;6.80;2.88;;;4.90;17.80;;;;;;7365028;19;20042;-71
2022/11/23 04:39:52;;;;;;;5.50;3.03;;;4.90;16.60;;;;;;7364356;19;20544;-71
2022/11/23 04:42:24;;;;;;;8.25;3.45;;;4.90;16.50;;;;;;7360061;19;20010;-70
2022/11/23 04:44:56;;;;;;;6.28;3.00;;;4.80;17.00;;;;;;7383033;19;20010;-70
2022/11/23 04:47:26;;;;;;;8.23;3.10;;;4.80;16.90;;;;;;7365849;19;20412;-70
2022/11/23 04:49:56;;;;;;;5.38;2.72;;;4.80;17.50;;;;;;7365046;19;20010;-70
2022/11/23 04:52:26;;;;;;;6.63;2.30;;;4.80;17.50;;;;;;7360105;19;20010;-70
2022/11/23 04:54:56;;;;;;;9.10;3.22;;;4.80;17.50;;;;;;7360881;19;20005;-70
2022/11/23 04:57:28;;;;;;;5.38;2.92;;;4.80;17.50;;;;;;7365051;19;20018;-71
2022/11/23 04:59:58;;;;;;;9.02;2.78;;;4.70;17.70;;;;;;7385801;19;20007;-71
2022/11/23 05:02:28;;;;;;;5.68;3.00;;;4.60;18.60;;;;;;7362583;19;20003;-71
2022/11/23 05:04:57;;;;;;;10.18;4.00;;;4.60;19.30;;;;;;7360957;19;20017;-71
2022/11/23 05:07:27;;;;;;;9.93;3.72;;;4.50;19.30;;;;;;7365551;19;20019;-71
2022/11/23 05:09:57;;;;;;;6.93;3.17;;;4.40;19.30;;;;;;7363951;19;20011;-70
2022/11/23 05:12:30;;;;;;;8.40;2.92;;;4.40;20.50;;;;;;7361145;19;20090;-70
2022/11/23 05:14:59;;;;;;;10.13;3.13;;;4.30;20.40;;;;;;7382553;19;21319;-70
2022/11/23 05:17:29;;;;;;;8.48;2.97;;;4.30;21.00;;;;;;7364385;19;20019;-70
2022/11/23 05:19:59;;;;;;;8.85;2.90;;;4.20;21.60;;;;;;7363636;19;20038;-70
2022/11/23 05:22:29;;;;;;;5.78;2.95;;;4.20;21.70;;;;;;7360342;19;20006;-70
2022/11/23 05:24:59;;;;;;;8.55;3.28;;;4.30;22.50;;;;;;7360874;19;20785;-70
2022/11/23 05:27:31;;;;;;;5.20;3.03;;;4.30;21.70;;;;;;7364856;19;20007;-71
2022/11/23 05:30:01;;;;;;;6.72;2.50;;;4.30;21.20;;;;;;7384402;19;20019;-71
2022/11/23 05:32:31;;;;;;;8.25;2.78;;;4.30;21.50;;;;;;7361162;19;20010;-69
2022/11/23 05:35:00;;;;;;;9.55;3.17;;;4.30;20.50;;;;;;7359484;19;20497;-70
2022/11/23 05:37:30;;;;;;;6.68;3.00;;;4.30;20.70;;;;;;7363977;19;20014;-70
2022/11/23 05:40:00;;;;;;;6.70;2.92;;;4.30;20.60;;;;;;7362691;19;20010;-71
2022/11/23 05:42:32;;;;;;;11.15;3.63;;;4.30;20.70;;;;;;7360558;19;20024;-69
2022/11/23 05:45:03;;;;;;;5.93;3.13;;;4.40;20.40;;;;;;7381345;19;20010;-69
2022/11/23 05:47:39;;;;;;;8.52;3.35;;;4.50;19.50;;;;;;7364271;19;20031;-70
2022/11/23 05:50:11;;;;;;;13.57;3.60;;;4.50;19.30;;;;;;7364878;19;20010;-70
2022/11/23 05:52:40;;;;;;;7.40;2.92;;;4.50;19.30;;;;;;7367635;19;20489;-71
2022/11/23 05:55:10;;;;;;;7.35;3.80;;;4.60;19.30;;;;;;7365938;19;20007;-69
2022/11/23 05:57:43;;;;;;;11.05;3.53;;;4.60;18.80;;;;;;7370702;19;20014;-70
2022/11/23 06:00:14;;;;;;;9.02;4.25;;;4.70;18.20;;;;;;7366491;19;20014;-70
2022/11/23 06:02:44;;;;;;;9.23;3.05;;;4.70;18.40;;;;;;7389133;19;20320;-70
2022/11/23 06:05:14;;;;;;;11.25;3.15;;;4.70;17.50;;;;;;7365129;19;20014;-70
2022/11/23 06:07:44;;;;;;;8.65;3.40;;;4.70;17.20;;;;;;7370418;19;20006;-70
2022/11/23 06:10:14;;;;;;;12.45;4.00;;;4.80;16.70;;;;;;7368047;19;20007;-69
2022/11/23 06:12:48;;;;;;;8.52;3.80;;;4.80;16.20;;;;;;7366970;19;20316;-70
2022/11/23 06:15:18;;;;;;;7.20;3.63;;;4.80;16.40;;;;;;7364762;19;20453;-70
2022/11/23 06:17:48;;;;;;;9.10;3.70;;;4.80;16.00;;;;;;7390877;19;20340;-70
2022/11/23 06:20:18;;;;;;;11.15;4.43;;;4.80;16.10;;;;;;7366711;19;20082;-70
2022/11/23 06:22:53;;;;;;;10.05;3.67;;;4.80;16.00;;;;;;7367517;19;20022;-69
2022/11/23 06:25:24;;;;;;;9.63;4.05;;;4.80;16.00;;;;;;7363952;19;20006;-70
2022/11/23 06:27:59;;;;;;;7.10;3.53;;;4.80;16.30;;;;;;7368957;19;20010;-70
2022/11/23 06:30:30;;;;;;;14.85;5.30;;;4.80;16.50;;;;;;7366539;19;20432;-70
2022/11/23 06:33:04;;;;;;;8.82;4.32;;;4.80;16.80;;;;;;7389199;19;20469;-70
2022/11/23 06:35:33;;;;;;;9.57;3.95;;;4.80;16.90;;;;;;7364070;19;20007;-70
2022/11/23 06:38:04;;;;;;;10.60;4.35;;;4.90;16.50;;;;;;7368940;19;20018;-71
2022/11/23 06:40:34;;;;;;;11.18;4.20;;;5.00;16.10;;;;;;7365136;19;20025;-69
2022/11/23 06:43:07;;;;;;;12.07;4.70;;;4.90;16.00;;;;;;7367664;19;20006;-70
2022/11/23 06:45:37;;;;;;;7.70;3.83;;;5.00;15.40;;;;;;7363612;19;20014;-70
2022/11/23 06:48:08;;;;;;;12.45;4.70;;;4.90;15.20;;;;;;7369112;19;20059;-71
2022/11/23 06:50:37;;;;;;;12.82;5.05;;;5.00;15.50;;;;;;7386253;19;20014;-70
2022/11/23 06:53:09;;;;;;;10.32;5.10;;;5.00;15.10;;;;;;7365504;19;20121;-70
2022/11/23 06:55:39;;;;;;;7.65;4.63;;;5.00;14.90;;;;;;7363119;19;20404;-70
2022/11/23 06:58:12;;;;;;;15.68;5.18;;;5.00;14.70;;;;;;7367862;19;20465;-70
2022/11/23 07:00:42;;;;;;;11.10;5.28;;;5.00;15.00;;;;;;7364735;19;20019;-71
2022/11/23 07:03:23;;;;;;;14.07;5.10;;;5.00;14.50;;;;;;7365299;19;20085;-71
2022/11/23 07:05:53;;;;;;;12.73;4.85;;;5.10;14.60;;;;;;7383594;19;20014;-72
2022/11/23 07:08:23;;;;;;;11.55;5.18;;;5.10;14.80;;;;;;7367298;19;20370;-70
2022/11/23 07:10:53;;;;;;;11.45;4.72;;;5.10;14.40;;;;;;7362602;19;20456;-71
2022/11/23 07:13:25;;;;;;;13.38;4.63;;;5.20;14.30;;;;;;7364533;19;20006;-71
2022/11/23 07:15:55;;;;;;;10.02;4.20;;;5.20;14.40;;;;;;7361376;19;20035;-70
2022/11/23 07:18:25;;;;;;;9.38;3.80;;;5.20;14.20;;;;;;7366552;19;20007;-71
2022/11/23 07:20:55;;;;;;;10.60;3.90;;;5.30;13.50;;;;;;7384507;19;20025;-69
2022/11/23 07:23:25;;;;;;;8.63;2.78;;;5.30;12.70;;;;;;7364441;19;20018;-71
2022/11/23 07:25:55;;;;;;;9.20;3.33;;;5.40;12.40;;;;;;7360784;19;20020;-71
2022/11/23 07:28:27;;;;;;;11.60;4.03;;;5.40;12.80;;;;;;7364197;19;20014;-71
2022/11/23 07:30:57;;;;;;;8.23;3.85;;;5.50;12.00;;;;;;7363429;19;20022;-70
2022/11/23 07:33:27;;;;;;;7.57;4.25;;;5.50;11.60;;;;;;7364928;19;20117;-71
2022/11/23 07:35:56;;;;;;;5.88;3.17;;;5.50;11.20;;;;;;7384806;19;20010;-71
2022/11/23 07:38:26;;;;;;;11.45;3.47;;;5.50;10.30;;;;;;7365256;19;20319;-71
2022/11/23 07:40:57;;;;;;;8.93;3.17;;;5.60;9.70;;;;;;7362096;19;20027;-71
2022/11/23 07:43:30;;;;;;;12.63;4.38;;;5.60;9.30;;;;;;7365073;19;20128;-71
2022/11/23 07:46:00;;;;;;;15.50;3.70;;;5.60;9.40;;;;;;7361622;19;20480;-71
2022/11/23 07:48:30;;;;;;;10.73;3.97;;;5.70;8.90;;;;;;7365265;19;20015;-70
2022/11/23 07:51:05;;;;;;;11.75;4.10;;;5.70;8.40;;;;;;7374601;19;20014;-70
2022/11/23 07:53:35;;;;;;;11.73;4.40;;;5.80;8.40;;;;;;7387028;19;20415;-70
2022/11/23 07:56:05;;;;;;;12.68;4.00;;;5.80;7.60;;;;;;7359708;19;20036;-69
2022/11/23 07:58:38;;;;;;;13.02;3.92;;;5.80;6.50;;;;;;7365183;19;20066;-70
2022/11/23 08:01:07;;;;;;;11.20;3.97;;;5.90;5.90;;;;;;7361267;19;20007;-70
2022/11/23 08:03:37;;;;;;;5.10;3.17;;;6.00;5.90;;;;;;7365761;19;20066;-70
2022/11/23 08:06:11;;;;;;;8.77;3.90;;;6.10;4.80;;;;;;7359117;19;20011;-71
2022/11/23 08:08:41;;;;;;;13.27;3.90;;;6.20;4.90;;;;;;7386849;19;20540;-71
2022/11/23 08:11:13;;;;;;;13.00;4.45;;;6.10;3.00;;;;;;7359754;19;20018;-70
2022/11/23 08:13:46;;;;;;;6.13;3.40;;;6.20;2.90;;;;;;7363162;19;20039;-69
2022/11/23 08:16:15;;;;;;;6.95;3.47;;;6.20;2.30;;;;;;7361600;19;20007;-71
2022/11/23 08:18:45;;;;;;;6.90;3.28;;;6.30;1.50;;;;;;7364821;19;20373;-70
2022/11/23 08:21:15;;;;;;;9.60;3.38;;;6.40;1.20;;;;;;7361544;19;20466;-70
2022/11/23 08:23:45;;;;;;;8.48;3.50;;;6.50;1.00;;;;;;7386577;19;20010;-71
2022/11/23 08:26:15;;;;;;;8.40;3.30;;;6.50;1.00;;;;;;7359962;19;20082;-71
2022/11/23 08:28:47;;;;;;;9.98;3.22;;;6.60;1.00;;;;;;7363599;19;20029;-70
2022/11/23 08:31:17;;;;;;;8.82;3.25;;;6.60;1.00;;;;;;7360808;19;20492;-70
2022/11/23 08:33:47;;;;;;;5.65;3.03;;;6.60;1.00;;;;;;7365362;19;20010;-70
2022/11/23 08:36:17;;;;;;;7.68;3.17;;;6.60;1.00;;;;;;7360469;19;20025;-70
2022/11/23 08:38:50;;;;;;;10.43;3.28;;;6.60;1.00;;;;;;7386803;19;21131;-70
2022/11/23 08:41:20;;;;;;;7.03;3.47;;;6.70;1.00;;;;;;7359389;19;20007;-70
2022/11/23 08:43:53;;;;;;;7.00;2.85;;;6.70;1.00;;;;;;7363929;19;20018;-70
2022/11/23 08:46:23;;;;;;;11.98;3.53;;;6.80;1.00;;;;;;7359529;19;20094;-70
2022/11/23 08:48:53;;;;;;;8.38;2.80;;;6.80;1.00;;;;;;7363755;19;20073;-70
2022/11/23 08:51:23;;;;;;;9.00;3.20;;;7.00;1.00;;;;;;7358644;19;20013;-70
2022/11/23 08:53:53;;;;;;;7.13;3.08;;;7.00;1.00;;;;;;7385328;19;20018;-70
2022/11/23 08:56:23;;;;;;;5.38;2.60;;;7.00;1.00;;;;;;7357896;19;20415;-70
2022/11/23 08:58:56;;;;;;;9.65;2.63;;;7.10;1.00;;;;;;7362151;19;20034;-71
2022/11/23 09:01:26;;;;;;;6.85;2.80;;;7.30;1.00;;;;;;7358389;19;20021;-70
2022/11/23 09:03:56;;;;;;;9.15;3.58;;;7.50;1.00;;;;;;7364178;19;20486;-70
2022/11/23 09:06:28;;;;;;;9.70;4.40;;;7.60;1.00;;;;;;7357989;19;20427;-70
2022/11/23 09:08:57;;;;;;;9.38;3.08;;;7.70;1.00;;;;;;7384343;19;20028;-72
2022/11/23 09:11:27;;;;;;;6.38;3.17;;;7.70;1.00;;;;;;7358743;19;20109;-70
2022/11/23 09:14:00;;;;;;;8.40;3.13;;;7.70;1.00;;;;;;7361855;19;20010;-70
2022/11/23 09:16:30;;;;;;;5.75;2.45;;;7.70;1.00;;;;;;7358727;19;20057;-71
2022/11/23 09:19:02;;;;;;;5.63;2.60;;;7.50;1.00;;;;;;7361864;19;20078;-72
2022/11/23 09:21:34;;;;;;;7.15;5.25;;;7.60;1.00;;;;;;7356789;19;20087;-70
2022/11/23 09:24:04;;;;;;;7.18;3.20;;;7.70;1.00;;;;;;7388181;19;20498;-69
2022/11/23 09:26:34;;;;;;;8.07;2.78;;;7.70;1.00;;;;;;7366605;19;20018;-70
2022/11/23 09:29:07;;;;;;;5.75;2.78;;;7.70;1.00;;;;;;7368241;19;20018;-70
2022/11/23 09:31:37;;;;;;;9.90;2.78;;;7.80;1.00;;;;;;7366284;19;20022;-70
2022/11/23 09:34:07;;;;;;;8.30;3.08;;;7.70;1.00;;;;;;7370360;19;20491;-70
2022/11/23 09:36:37;;;;;;;16.33;3.25;;;7.70;1.00;;;;;;7367090;19;20078;-71
2022/11/23 09:39:07;;;;;;;12.02;3.42;;;7.80;1.00;;;;;;7368922;19;20493;-71
2022/11/23 09:42:13;;;;;;;6.57;2.92;;;7.80;1.00;;;;;;7385144;19;20033;-71
2022/11/23 09:44:51;;;;;;;;;;;7.90;1.00;;;;;;7370036;19;20019;-70
2022/11/23 09:47:40;;;;;;;6.43;2.80;;;7.90;1.00;;;;;;7364351;19;19918;-70
2022/11/23 09:50:16;;;;;;;8.90;3.42;;;7.90;1.00;;;;;;7367009;19;20490;-71
2022/11/23 09:52:50;;;;;;;9.25;3.60;;;7.90;1.00;;;;;;7367713;19;20013;-71
2022/11/23 09:55:34;;;;;;;7.60;2.67;;;7.90;1.00;;;;;;7365505;19;20043;-71
2022/11/23 09:58:07;;;;;;;5.70;2.60;;;8.00;1.00;;;;;;7368243;19;20248;-71
2022/11/23 10:00:45;;;;;;;5.45;2.40;;;7.90;1.00;;;;;;7365958;19;20021;-70
2022/11/23 10:03:17;;;;;;;7.88;2.70;;;8.10;1.00;;;;;;7368209;19;20018;-71
2022/11/23 10:06:04;;;;;;;4.75;2.47;;;8.10;1.00;;;;;;7387032;19;20014;-71
2022/11/23 10:08:48;;;;;;;7.28;3.30;;;8.20;1.00;;;;;;7365933;19;20473;-71
2022/11/23 10:11:41;;;;;;;9.52;2.70;;;8.30;1.00;;;;;;7362708;19;20011;-70
2022/11/23 10:14:23;;;;;;;5.60;2.33;;;8.30;1.00;;;;;;7365021;19;20502;-72
2022/11/23 10:17:04;;;;;;;8.18;3.05;;;8.30;1.00;;;;;;7362315;19;20520;-70
2022/11/23 10:19:49;;;;;;;9.45;3.05;;;8.40;1.00;;;;;;7366089;19;20014;-70
2022/11/23 10:22:23;;;;;;;8.25;2.92;;;8.50;1.00;;;;;;7365341;19;20020;-70
2022/11/23 10:24:55;;;;;;;6.80;2.25;;;8.60;1.00;;;;;;7368975;19;20003;-71
2022/11/23 10:27:26;;;;;;;6.38;2.75;;;8.50;1.00;;;;;;7365161;19;20016;-70
2022/11/23 10:29:57;;;;;;;9.65;2.85;;;8.50;1.00;;;;;;7388392;19;20021;-70
2022/11/23 10:32:34;;;;;;;5.88;2.95;;;8.60;1.00;;;;;;7362918;19;20186;-71
2022/11/23 10:35:13;;;;;;;7.45;2.85;;;8.50;1.00;;;;;;7366517;19;20019;-71
2022/11/23 10:37:43;;;;;;;10.07;3.35;;;8.50;1.00;;;;;;7368204;19;20018;-70
2022/11/23 10:40:18;;;;;;;9.82;3.05;;;8.60;1.00;;;;;;7365583;19;20091;-68
2022/11/23 10:42:53;;;;;;;9.73;3.00;;;8.60;1.00;;;;;;7367004;19;20017;-70
2022/11/23 10:45:24;;;;;;;;;;;8.60;1.00;;;;;;7364274;19;20015;-70
2022/11/23 10:47:58;;;;;;;7.63;3.28;;;8.70;1.00;;;;;;7390866;19;20330;-70
2022/11/23 10:50:32;;;;;;;11.32;3.17;;;8.80;1.00;;;;;;7363137;19;20039;-70
2022/11/23 10:53:13;;;;;;;7.45;3.17;;;8.80;1.00;;;;;;7366981;19;20007;-70
2022/11/23 10:55:52;;;;;;;6.07;2.90;;;8.80;1.00;;;;;;7364030;19;20023;-70
2022/11/23 10:58:30;;;;;;;9.27;3.55;;;8.80;1.00;;;;;;7368054;19;20017;-70
2022/11/23 11:01:04;;;;;;;8.45;3.85;;;8.90;1.00;;;;;;7363793;19;20014;-70
2022/11/23 11:03:37;;;;;;;;;;;8.90;1.00;;;;;;7366906;19;20090;-69
2022/11/23 11:06:07;;;;;;;10.15;3.15;;;8.90;1.00;;;;;;7363886;19;19917;-71
2022/11/23 11:08:51;;;;;;;8.75;3.53;;;9.00;1.00;;;;;;7388452;19;20541;-71
2022/11/23 11:11:27;;;;;;;8.80;2.42;;;9.00;1.00;;;;;;7363748;19;20019;-70
2022/11/23 11:14:04;;;;;;;9.43;2.67;;;9.00;1.00;;;;;;7367189;19;20015;-69
2022/11/23 11:16:37;;;;;;;8.63;2.85;;;9.00;1.00;;;;;;7363637;19;20327;-70
2022/11/23 11:19:24;;;;;;;8.38;2.88;;;9.10;1.00;;;;;;7366376;19;20013;-69
2022/11/23 11:21:54;;;;;;;8.23;2.35;;;9.20;1.00;;;;;;7361866;19;20010;-70
2022/11/23 11:24:34;;;;;;;7.07;2.20;;;9.10;1.00;;;;;;7368038;19;20014;-70
2022/11/23 11:27:07;;;;;;;7.65;2.47;;;9.20;1.00;;;;;;7383540;19;20010;-70
2022/11/23 11:29:48;;;;;;;7.38;2.63;;;9.30;1.00;;;;;;7366035;19;20438;-69
2022/11/23 11:32:23;;;;;;;10.77;2.83;;;9.30;1.00;;;;;;7361854;19;20086;-70
2022/11/23 11:35:02;;;;;;;5.00;2.10;;;9.30;1.00;;;;;;7365893;19;20011;-71
2022/11/23 11:37:36;;;;;;;7.53;2.38;;;9.30;1.00;;;;;;7363405;19;20493;-70
2022/11/23 11:40:12;;;;;;;6.40;2.25;;;9.30;1.00;;;;;;7365691;19;20010;-70
2022/11/23 11:42:46;;;;;;;7.78;2.40;;;9.30;1.00;;;;;;7363469;19;20013;-70
2022/11/23 11:45:20;;;;;;;9.15;2.88;;;9.30;1.00;;;;;;7363679;19;20006;-70
2022/11/23 11:47:54;;;;;;;;;;;9.40;1.00;;;;;;7387283;19;20090;-70
2022/11/23 11:50:30;;;;;;;5.55;2.00;;;9.50;1.00;;;;;;7364414;19;19944;-70
2022/11/23 11:53:07;;;;;;;5.93;2.38;;;9.50;1.00;;;;;;7365185;19;20011;-71
2022/11/23 11:55:50;;;;;;;5.72;2.20;;;9.60;1.00;;;;;;7363366;19;20081;-70
2022/11/23 11:58:23;;;;;;;9.07;2.25;;;9.60;1.00;;;;;;7366128;19;20003;-70
2022/11/23 12:01:00;;;;;;;6.75;2.03;;;9.50;1.00;;;;;;7363226;19;20671;-71
2022/11/23 12:03:42;;;;;;;5.95;2.10;;;9.60;1.00;;;;;;7362608;19;20018;-70
2022/11/23 12:06:22;;;;;;;5.05;1.85;;;9.60;1.00;;;;;;7361871;19;20413;-69
2022/11/23 12:09:01;;;;;;;6.18;1.90;;;9.50;1.00;;;;;;7386460;19;20039;-70
2022/11/23 12:11:33;;;;;;;6.55;2.13;;;9.50;1.00;;;;;;7363175;19;20006;-71
2022/11/23 12:14:05;;;;;;;9.80;2.33;;;9.50;1.00;;;;;;7364965;19;20027;-70
2022/11/23 12:16:43;;;;;;;5.68;2.08;;;9.50;1.00;;;;;;7356247;19;20011;-69
2022/11/23 12:19:20;;;;;;;5.68;2.10;;;9.60;1.00;;;;;;7362204;19;20015;-71
2022/11/23 12:22:07;;;;;;;4.57;2.00;;;9.50;1.00;;;;;;7359303;19;20444;-69
2022/11/23 12:24:55;;;;;;;5.07;1.73;;;9.40;1.00;;;;;;7356693;19;20524;-69
2022/11/23 12:27:35;;;;;;;9.13;1.80;;;9.40;1.00;;;;;;7359344;19;20019;-70
2022/11/23 12:30:19;;;;;;;3.70;1.75;;;9.40;1.00;;;;;;7378071;19;20022;-72
2022/11/23 12:33:12;;;;;;;6.78;1.75;;;9.40;1.00;;;;;;7383654;19;20022;-70
2022/11/23 12:36:00;;;;;;;6.70;1.77;;;9.40;1.00;;;;;;7358109;19;20017;-69
2022/11/23 12:38:41;;;;;;;4.57;1.70;;;9.40;1.00;;;;;;7361611;19;20033;-70
2022/11/23 12:41:25;;;;;;;5.55;2.70;;;9.40;1.00;;;;;;7360286;19;20189;-70
2022/11/23 12:44:14;;;;;;;4.27;2.07;;;9.40;1.00;;;;;;7360420;19;20118;-70
2022/11/23 12:46:50;;;;;;;4.18;1.92;;;9.40;1.00;;;;;;7353037;19;20661;-69
2022/11/23 12:52:39;;;;;;;5.78;3.03;;;9.50;1.00;;;;;;7362037;19;20007;-70
2022/11/23 12:55:19;;;;;;;5.60;1.42;;;9.50;1.00;;;;;;7361612;19;20533;-70
2022/11/23 12:57:56;;;;;;;6.68;1.67;;;9.40;1.00;;;;;;7360696;19;20014;-70
2022/11/23 13:00:29;;;;;;;5.68;1.70;;;9.40;1.00;;;;;;7365735;19;20019;-70
2022/11/23 13:03:28;;;;;;;7.57;2.47;;;9.40;1.00;;;;;;7387024;19;20042;-69
2022/11/23 13:06:22;;;;;;;10.27;5.00;;;9.40;1.00;;;;;;7367233;19;20011;-69
2022/11/23 13:09:16;;;;;;;4.80;1.05;;;9.50;1.00;;;;;;7365824;19;20010;-69
2022/11/23 13:12:06;;;;;;;3.28;1.40;;;9.40;1.00;;;;;;7363779;19;20030;-69
2022/11/23 13:14:44;;;;;;;4.10;1.40;;;9.40;1.00;;;;;;7371238;19;20347;-68
2022/11/23 13:17:31;;;;;;;3.55;1.30;;;9.40;1.00;;;;;;7363861;19;20030;-71
2022/11/23 13:20:16;;;;;;;3.40;1.30;;;9.40;1.00;;;;;;7366328;19;20006;-70
2022/11/23 13:22:46;;;;;;;3.35;1.48;;;9.30;1.00;;;;;;7366688;19;20077;-69
2022/11/23 13:25:23;;;;;;;2.65;1.45;;;9.40;1.00;;;;;;7367890;19;20118;-70
2022/11/23 13:28:04;;;;;;;3.83;1.40;;;9.40;1.00;;;;;;7366101;19;20778;-69
2022/11/23 13:30:36;;;;;;;2.53;1.50;;;9.30;1.00;;;;;;7367562;19;21291;-69
2022/11/23 13:33:37;;;;;;;3.28;1.67;;;9.30;1.00;;;;;;7366437;19;20026;-70
2022/11/23 13:36:11;;;;;;;4.28;1.55;;;9.30;1.00;;;;;;7366826;19;20007;-69